Cross Anchor, South Carolina
Current Conditions -  °F | °C
As of 2:15 PM on Monday 22 Dec 2014 (Local Time) from KLUX Reporting Station
Haze Haze  
Wind Chill: 36°   Ceiling: 300
Heat Index: 41°   Visibility: 1mi
Dew Point: 41°   Wind: 8mph
Humidity: 100%   Direction: 50°NE
Pressure: 30.01"   Gusts: NA
Location:  34.64°N, 81.86°W
Report Text: KLUX 221915Z AUTO 05007KT 1SM BR OVC003 05/05 A3001 RMK AO2
Loading
Personal Weather Stations






























Interactive Weather Map New forecast layout! Learn more

10-Day Weather Forecast

Advertisements
Track Severe Weather on mobile